Zehner, Canada
Current Conditions -  °F | °C
As of 11:00 PM on Thursday 27 Nov 2014 (Local Time) from CYQR Reporting Station
Light Snow Light Snow  
Wind Chill: -1°   Ceiling: 4200
Heat Index: 14°   Visibility: 15mi
Dew Point: 12°   Wind: 14mph
Humidity: 93%   Direction: 100°E
Pressure: 29.87"   Gusts: NA
Location:  50.57°N, 104.46°W
Report Text: CYQR 280500Z 10012KT 15SM -SN DRSN OVC042 M10/M11 A2987 RMK SC8 SLP161
Loading
Personal Weather Stations






























Interactive Weather Map New forecast layout! Learn more

10-Day Weather Forecast

Advertisements
Track Severe Weather on mobile